Timeline UpdatesTrip UpdatesNews PostsPvt Posts♥♥Travel TipsAdmin PostsConv PostsFollowed PostsChat RequestsBlog PostsPNR Posts

Disclaimer
Search
 
 
Sat Nov 1, 2014 09:36:37 ISTHomeTrainsΣChainsAtlasPNRForumGalleryNewsFAQTripsMembersLoginFeedback
No Recent News for this Train
Other Trains in the News **new
Latest...
Will stop at Kulti and Kumardhubi instead of Barakar from 22/9/14-23/9/14 #1220522.
Sun Sep 21, 2014 (05:56PM)
⇐ Return Journey: Train# 15027

15028/Maurya Express

Time-Table HAS CHANGED.
Sep 21 2014 (5:56PM)
Change Departure Station:
Change Arrival Station:
Post a Train Travel TipPost a Train Travel Tip **new
Post a Comment/Question/Picture/VideoPost a Comment/Question/Picture/Video
Pantry/Catering
✕ NO Pantry Car
✓ Catering Avbl
RSA - Rake Sharing
Rake/Coach Composition
LOCO-SLR-GS-GS-GS-GS-GS-GS-A1-B1-S4-S3-S2-S1-GS-SLR
Loco
GD WDM-3A (GKP-BJU) HWH WAP-4 (BJU-HTE)
News    PNR    Forum    Time-Table    Availability    Fare Chart    Map    Arr/Dep History    Trips    Gallery    ΣChains    X/O    Timeline    
Travel Time: 7h 13m    8 halts    Distance: 208 km    Avg Speed: 28 km/hr
Type: Mail/Express
Zone: NER/North Eastern
Departs @ 00:57 (Avg 1h 50m late)
Platform# ???
SMTWTFS
Kumardubi/KMME 
Arrives @ 08:10 (Avg 49m late)
Platform# 3
SMTWTFS
Hatia/HTE 

8 halts. 44 intermediate Stations between Kumardubi and Hatia

Hide intermediate Stations  Show Old Time-Table

#TrkCodeStation NameX/OArrivesAvgDepartsAvgHaltPFDay#KmSpeedElevZoneAddress
1%==%GKPGorakhpur Junction (10)  -07:25+521-649.36484mNERGorakhpur 273001, Uttar Pradesh
1.1%==%GKCGorakhpur Cantt. (3)X  07:29-07:29-  1-645.6 6485mNERGorakhpur-273001, Uttar Pradesh
1.2%==%KHMKusmhi (2)X  07:37-07:37-  1-636.2 6483mNERGorakhpur, Uttar Pradesh
1.3%==%SANRSardarnagar  07:43-07:43-  1-630.2 6482mNERGorakhpur-Deoria Road, Uttar Pradesh
2%==%CCChauri Chaura (2)X  07:48+2707:50+292m--1-624.95884mNERGorakhpur- PinCode:- 273201, Uttar Pradesh
3%==%GBGauri Bazar (2)  08:01 08:00+3208:03 08:02+332m--1-615.25082mNERDistrict Deoria- Pincode- 274202, Uttar Pradesh
3.1%==%BALRBaitalpur (2)X  08:12-08:12-  1-606.7 5082mNERPin- 274201, Uttar Pradesh
4%==%DEOSDeoria Sadar (3)  08:18 08:20+3508:20 08:22+382m--1-600.16979mNERDeoria- 274001, Uttar Pradesh
4.1%==%AHLRAhalyapurX  08:27-08:27-  1-594.0 6981mNERDeoria, Uttar Pradesh
4.2%==%NRANunkhar (2)  08:34-08:34-  1-586.7 6975mNERBaikunthpur, Uttar Pradesh
5%==%BTTBhatni Junction (5)  08:43 08:40+4508:48 08:45+475m--1-579.45173mNERDeoria, Uttar Pradesh
5.1%==%NNPRNonapar  08:51-08:51-  1-574.6 5176mNERSalempur Mairwa Rd, Uttar Pradesh
6%==%BHTRBhatpar Rani (2)  08:59 09:00+4609:01 09:02+462m--1-566.55473mNERDeoria, Uttar Pradesh
7%==%BTKBankata (2)  09:11+4609:13+472m--1-558.44973mNERDeoria, Uttar Pradesh
8%==%MWMairwa (2)  09:22 09:21+4609:24 09:23+482m--1-552.06673mNERMairwa, Bihar
8.1%==%KYWKarchhue  09:28-09:28-  1-546.5 6670mNERState Highway 47, Bihar
9%==%ZRDEJiradei (2)X09:37 09:33+5109:38 09:35+521 2m--1-541.06269mNERSiwan, Bihar
10%==%SVSiwan Junction (4)  09:46 09:45+5209:51 09:50+525m--1-530.77170mNERSiwan, Bihar
10.1%==%PCKPachrukhi (2)X  09:57-09:57-  1-522.3 7167mNERPachrukhi, Bihar
11%==%DDADuraundha Junction (3)  10:06 10:05+5710:08 10:07+562m--1-512.95864mNERDistt: Siwan, Bihar
11.1%==%CWChainwa (2)X  10:15-10:15-  1-504.7 5863mNERSiwan, Bihar
11.2%==%MHRNMahendranath Halt (2)  10:17-10:17-  1-502.7 5863mNERMahendrana, Uttar Pradesh
12%==%EKMAEkma (3)X  10:23+5610:25+572m--1-497.42864mNERSaran, Bihar
12.1%==%DDPDaudpur (2)X  10:44-10:44-  1-488.7 2859mNERChhapra, Bihar
12.2%==%KPSKopa Samhota (2)X  11:02-11:02-  1-480.1 2869mNERKopa Samhota Station Rd, Bihar
12.3%==%TKVRTeknewas (2)  11:16-11:16-  1-473.8 2858mNERSaran, Bihar
13%==%CPRChhapra Junction (6)X  11:25+3111:35+3410m--1-469.51358mNERDistt: Saran, Bihar
14|--|CIChhapra Kacheri (3)  11:43 11:45+3611:45 11:47+392m--1-467.36957mNERChhapra, Bihar
14.1/==/GJHGoldinganj (2)  11:55-11:55-  1-458.3 6958mECRChapra Patna Highway, Bihar
14.2/==/DRIDumri Juara (2)  11:59-11:59-  1-453.5 6957mECRSaran, Bihar
14.3/==/BAGLBaragopal (2)  12:03-12:03-  1-449.4 6957mECRSH 46, Bihar
14.4/==/PPDAPanchpatia Deoria Halt (1)  12:05-12:05-  1-446.6 6957mECRNH 19, Bihar
14.5/==/ATNRAwatarnagar (2)  12:07-12:07-  1-444.5 6956mECRNH 19, Bihar
14.6/==/AABHAmbika Bhawani Halt (1)X  12:09-12:09-  1-442.5 6959mECRNH 19, Bihar
15/==/DGADighwara (2)  12:09 12:12+4812:11 12:14+492m21-438.66360mECR06158-281240, Bihar
15.1/==/STLRSitalpur (2)  12:18-12:18-  1-434.4 6357mECRSitalpur, Bihar
15.2/==/NYONayagaon (2)  12:25-12:25-  1-426.8 6353mECRNayagaon Sarai, Bihar
15.3/==/PMUParmanandpur (2)X  12:30-12:30-  1-422.1 6356mECRNational Highway 19, Bihar
16/==/SEESonpur Junction (4)X  12:43 12:36+5712:53 12:41+1:0010 5m--1-415.53356mECRSaran, Bihar
17/=-/HJPHajipur Junction (3)X  13:06 12:51+5513:08 13:10+552 19m21-410.05455mECR06224-272230, Bihar
17.1/--/GWHGhoshawar (1)  13:15-13:15-  1-405.4 5454mECRDaulatpur Deoria urf Daulatpur, Bihar
17.2/--/SAISarai (1)  13:22-13:22-  1-399.3 5454mECRVaishali, Bihar
17.3/--/BTHLBithauli (1)X  13:27-13:27-  1-395.0 5458mECRVaishali, Bihar
18/--/BNRBhagwanpur (2)X  13:41 13:32+1:0213:43 13:37+1:032 5m11-390.36260mECRBhagwanpur, Bihar
18.1/--/BNPTBenipatti Pirapur (1)  13:43-13:43-  1-383.9 6255mECRGhojaul Rd, Bihar
19/--/GRLGoraul (2)  13:51 13:45+1:0313:53 13:47+1:072m11-382.05557mECRVAISHALI, Bihar
19.1/--/KHIKurhani (2)  13:53-13:53-  1-376.2 5556mECRKurhani, Bihar
19.2/--/TURTurki (2)  14:00-14:00-  1-369.9 5555mECRTurki, Bihar
19.3/-=%RDRam Dayalu Nagar (3)XO  14:08-14:08-  1-362.2 5556mECRMuzaffarpur, Bihar
20%==%MFPMuzaffarpur Junction (6)X  14:28 14:15+1:2114:38 14:20+1:2410 5m11-356.15457mECRMuzaffarpur, Bihar
20.1/==/NRPANarayanpur Anant (3)  14:25-14:25-  1-351.3 5456mECRMuzaffarpur, Bihar
20.2/==/SLTSilaut (2)  14:32-14:32-  1-345.6 5457mECRMuzaffarpur, Bihar
20.3/==/SIHOSiho (2)X  14:40-14:40-  1-337.8 5453mECRNational Highway 28, Bihar
21/==/DOLDholi (2)XO  15:02 14:48+1:4015:04 15:09+1:232 21m--1-331.067 ECRDistt. Muzaffarpur, Bihar
21.1/==/DUBHDubaha (2)  15:14-15:14-  1-324.9 6755mECRDubha Station, Bihar
21.2/==/VBHVishnupur Bathua Halt  15:18-15:18-  1-321.4 6755mECRTajpur - Garhia - Pusa Road, Bihar
22/==/KRBPKhudiram B Pusa (2)X  15:29 15:21+1:2915:31 15:36+1:242 15m--1-317.66352mECRDistt. Samastipur, Bihar
23/==/KPGMKarpurigram (3)XO  15:44 15:43+1:1515:46 15:57+1:082 14m--1-310.33151mECRState Highway 49, Bihar
24/==/SPJSamastipur Junction (9)X  16:10 16:09+1:1016:20 16:14+1:1410 5m--1-304.06355mECRSamastipur, Bihar
24.1/==/BLRIBelari Halt  16:18-16:18-  1-299.4 6351mECRMalti, Bihar
24.2/==/UJPUjiarpur (2)  16:23-16:23-  1-294.9 6351mECRSamastipur, Bihar
24.3/==/NAZJNazirGanj (2)  16:29-16:29-  1-288.7 6351mECRNazirGanj, Bihar
24.4/==/BSRABasarhia Halt (2)  16:32-16:32-  1-285.0 6352mECRBasaria, Bihar
25/==/DSSDalsingh Sarai (2)  16:40 16:36+1:2616:42 16:38+1:272m21-280.851 ECR06278-221238, Bihar
25.1/==/STJTSathajagat (2)  16:43-16:43-  1-276.3 5149mECRSathajagat, Bihar
26/==/BCABachwara Junction (3)XO  16:56 16:51+1:2816:58 16:53+1:352m--1-269.81149mECRBegusarai, Bihar
26.1/==/TGATeghra (3)O  17:41-17:41-  1-260.8 1148mECRBegusarai, Bihar
26.2/==/BUJBarauni Flag (2)X  18:06-18:06-  1-256.2 1149mECRDistt: Begusarai, Bihar
27/==/BJUBarauni Junction (9)X  18:20+1:0318:45+1:1925m61-253.52149mECRBegusarai, Bihar
27.1/--/GHXGarhara (1)  18:53-18:53-  1-250.8 2147mECRSimariya, Bihar
27.2/--/SAEDinkar Gram Simaria (3)  19:02-19:02-  1-247.4 21228mECRBegusarai, Bihar
27.3/--/DKGSDinkar Gram Simaria (3)  19:02-19:02-  1-247.4 2147mECRSimaria Station, Bihar
27.4/--/BTPHChakia Thermal Halt (2)X  19:06-19:06-  1-246.2 2146mECRNational Highway 31, Bihar
27.5/--/RJORajendra Pul (1)X  19:11-19:11-  1-244.5 2149mECRSimaria, Bihar
28/--/HTZUHathidah Upper (1) new halt!!X  19:20+1:5419:21+1:541m--1-241.35551mECRMurarpur, Bihar
28.1/==/TALLTall Junction  19:25-19:25-  1-237.2 5544mECRTal, Bihar
28.2/==/HTZHathidah Junction (2)X  19:09 19:30-19:11 19:30-  1-233.2 5550mECRMusahari, Bihar
28.3/==/RDUMRampur Dumra (3)X  19:34-19:34-  1-229.4 5546mECRNational Highway 80, Bihar
29/==/BRYABarhiya (3)  19:40+1:5219:42+1:522m--1-223.87047mECRBarahiya, Bihar
29.1/==/GGSYGanga Sahay  19:44-19:44-  1-221.2 7044mECRKIUL, Bihar
29.2/==/DMRXDumri Halt (1)  19:46-19:46-  1-219.5 7049mECRNational Highway 80, Bihar
29.3/==/DJSDhurani Jwas Halt  19:48-19:48-  1-216.3 7046mECRLakhisarai, Bihar
29.4/==/MKBMankathaX  19:50-19:50-  1-214.3 7047mECRNational Highway 80, Bihar
30/==/LKRLuckeesarai Junction (2)XO  19:55+2:0019:57+2:012m21-208.7852mECRLakhisarai, Bihar
31/==/KIULKiul Junction (5)  20:07+1:5120:12+1:525m51-207.46353mECRDist. Lakhisarai, Bihar
31.1/==/MHLTMahesh Leta Halt (2)  20:14-20:14-  1-205.0 6352mECRKiul, Bihar
31.2/==/LCKLakhochak Halt (2)  20:15-20:15-  1-203.8 6352mECRKiul, Bihar
31.3/==/BSQPBansipur (2)  20:16-20:16-  1-203.0 6353mECRKiul, Bihar
31.4/==/BLHRBalahapur Halt (2)  20:17-20:17-  1-202.4 6353mECRSH 18, Bihar
31.5/==/MNPMananpur (2)  20:19-20:19-  1-200.5 6357mECRState Highway 18, Bihar
31.6/==/BFMBhalui (2)  20:25-20:25-  1-194.2 6363mECRState Highway 18, Bihar
31.7/==/KDERKunder Halt (2)  20:27-20:27-  1-191.4 6367mECRSH 18, Bihar
32/==/JMUJamui (2)  20:38+2:0020:40+2:012m--1-180.11881mECRState Highway 72, Bihar
32.1/==/CUXChaura (2)XO  21:07-21:07-  1-172.1 1890mECRState Highway 18, Bihar
32.2/==/GHRGidhaur (2)XO  21:29-21:29-  1-165.5 18106mECRState Highway 18, Bihar
32.3/==/DPXDadpur (2)X  21:44-21:44-  1-161.2 18116mECRDadpur, Bihar
33/==/JAJJhajha (4)  22:08+1:0922:18+1:1410m--1-154.180143mECRJhajha, Bihar
33.1/==/RJLARajla (2)  22:21-22:21-  1-149.9 80152mERTola Agaria Kalan, Bihar
33.2/==/NRGONarganjo Halt (2)  22:24-22:24-  1-146.0 80188mERState Highway 18, Bihar
33.3/==/GHNGhorparanX  22:27-22:27-  1-141.8 80230mERSwami Vivekanand College Rd, Bihar
33.4/==/STLSimultala (2)  22:32-22:32-  1-135.4 80247mERSimultala, Bihar
33.5/==/TLBTalwa Bazar (2)X  22:34-22:34-  1-132.8 80233mERTola Siantanr, Bihar
33.6/==/LHBLahabon (3)  22:40-22:40-  1-125.2 80259mERDeoghar, Jharkhand
33.7/==/TTNTulsitanr (2)  22:46-22:46-  1-117.0 80272mERDeoghar, Jharkhand
34/==/JSMEJasidih Junction (5)  22:51+1:2122:56+1:215m--1-110.070271mERJasidih, Jharkhand
34.1/==/KBQKumrabad Rohini (2)  23:01-23:01-  1-103.6 70231mERKumrabad Rohi, Jharkhand
34.2/==/SNQSankarpur (2)  23:06-23:06-  1-98.8 70242mERDeoghar, Jharkhand
34.3/==/MUWMathurapur (2)X  23:11-23:11-  1-92.6 70261mERDeoghar, Jharkhand
34.4/==/NPZNawapatra  23:16-23:16-  1-86.8 70221mERDeoghar, Jharkhand
35/==/MDPMadhupur Junction (4)X  23:21+1:2423:25+1:244m--1-80.981254mER06432-224478, Jharkhand
35.1/==/JRWJoramowX  23:32-23:32-  1-71.0 81208mERBarrage on Ajoy River, Jharkhand
35.2/==/MNCMadankata (2)X  23:36-23:36-  1-65.6 81208mERBarrage on Ajoy River, Jharkhand
36/==/VDSVidyasagar (2)  23:43+1:3923:45+1:412m--1-56.774250mERJamtara, Jharkhand
36.1/==/KEEKaseetarX  23:53-23:53-  1-47.0 74219mERJamtara, Jharkhand
36.2/==/JMTJamtara (2)  23:59-23:59-  1-38.8 74201mERJamtara, Jharkhand
36.3/==/BMBodma  00:07-00:07-  2-29.7 74179mERChittaranjan, West Bengal
37/==/CRJChittaranjan (3)X  00:13 00:11+1:3600:15 00:13+1:362m22-24.540182mERMihijam, Jharkhand
37.1/==/RNPRRupnarayanpur (3)O  00:20-00:20-  2-20.0 40191mERChittaranjan, West Bengal
37.2/--/SLSSalanpur (2)  00:30-00:30-  2-12.8 40156mERSalanpur Station, West Bengal
38/--/ULTKulti (3)  00:41+1:5500:43+1:542m--2-5.839148mERdist - bardhaman, West Bengal
39/==/BRRBarakar (2)  00:48+2:0300:50+2:032m--2-2.530129mERDist. Bardhaman, West Bengal
40/==/KMMEKumardubi (2)»  00:55+1:5000:57+1:502m--20.024135mERDhanbad - 828203(06540-222077), Jharkhand
40.1/==/MMUMugma (3)X  01:09-01:09-  24.6 24135mERNational Highway 2, Jharkhand
40.2/==/TNWThapar Nagar (2)XO  01:22-01:22-  210.0 24144mERDhanbad, Jharkhand
40.3/==/KAOKalubathan (2)X  01:33-01:33-  214.2 24195mERDhanbad, Jharkhand
40.4/==/CAMChhota Ambana (3)X  01:56-01:56-  223.2 24200mERDhanbad, Jharkhand
40.5/==/PKAPradhankhunta Junction (3)X  02:12-02:12-  229.4 24202mECRDhanbad, Jharkhand
40.6/==/DOKMDokra Halt (2)  02:22-02:22-  233.2 24211mECRDokra, Jharkhand
41/==/DHNDhanbad Junction (9)X  02:35+1:0502:55+1:0620m--238.525235mECR2319801. Div. HQ ECR, Jharkhand
41.1/==/KDSKusunda Junction (2)  03:05-03:05-  242.5 25218mECRKusunda, Jharkhand
41.2/==/BZEBaseria (2)  03:10-03:10-  244.7 25210mECRBaseria, Jharkhand
41.3/==/BZSBansjora  03:15-03:15-  246.8 25212mECRDhanbad, Jharkhand
41.4/==/SJASijua  03:21-03:21-  249.3 25206mECRSijua, Jharkhand
41.5/==/ANJEAngarpathra HaltX  03:24-03:24-  250.5 25204mECRAngarpathra, Jharkhand
42/==/KTHKatrasgarh (1)  03:28+1:1803:33+1:175m1252.322198mECRKatrasgarh, Jharkhand
42.1/==/TNJETentulla  03:40-03:40-  254.8 22196mECRTentulla, Jharkhand
42.2/==/SZESonardih  03:44-03:44-  256.3 22197mECRSonardih, Jharkhand
42.3/==/TNOTundu  03:48-03:48-  257.8 22198mECRTundu, Jharkhand
42.4/==/BDQBudora  03:54-03:54-  259.8 22210mECRBudora, Jharkhand
42.5/==/PLJEPhulwartanr (2)  03:56-03:56-  260.6 22219mECRPhulwartanr, Jharkhand
42.6/==/JMXJamuni  04:03-04:03-  263.1 22204mECRJamuni, Jharkhand
42.7/=-/JNNAJamuniatanr Halt (1)  04:10-04:10-  265.6 22182mECRNational Highway 32, Jharkhand
42.8/--/DDGADugda (1)  04:18-04:18-  268.4 22209mECRDugda, Jharkhand
42.9/--/DNHDeonagar  04:22-04:22-  269.9 22223mECRDeonagar, Jharkhand
43/--/CRPChandrapura Junction (3)  04:30+1:0704:33+1:113m1272.835227mECR06549-242555, Jharkhand
43.1%==/RJBRajabera  04:40-04:40-  276.9 35198mECRStation Rd, Jharkhand
43.2/==/TKBTupkadih (3)  04:48-04:48-  281.7 35233mSERBokaro, Jharkhand
43.3/==/BKSNBokaro North Cabin  04:55-04:55-  285.6 35239mSERBokaro Steel City, Jharkhand
44/==/BKSCBokaro Steel City (3)  05:00+1:0505:10+1:0410m2288.358245mSER06542-253861, Jharkhand
44.1/==/RDFRadhagaon (3)X  05:17-05:17-  294.8 58247mSERPundag Railway Station Rd, Jharkhand
44.2/==/PNWPundhag (3)  05:27-05:27-  2105.0 58291mSERDist - Puruliya -723215, West Bengal
44.3/==/DRGUDamru Ghutu (2)  05:34-05:34-  2111.3 58291mSERAnandnagar Rd, West Bengal
45/==/KSXKotshila Junction (3)  05:38 05:39+1:0405:40+1:062 1m12116.658312mSERPurulia District, West Bengal
45.1/==/BKDRBegunkodar (2)  05:48-05:48-  2124.1 58314mSERSH 4A, West Bengal
46/==/JAAJhalida (3)  05:51 05:52+1:0405:53+1:052 1m--2128.235297mSERJhalida, West Bengal
46.1/==/THOTulin (3)  06:06-06:06-  2135.8 35267mSERDIST - PURULIYA - 723212, West Bengal
47/==/MURIMuri Junction (3)X  06:15+1:0806:20+1:085m32141.042254mSER06522-222444, Jharkhand
47.1/==/SLFSilli (3)X  06:29-06:29-  2147.1 42269mSERRanchi, Jharkhand
47.2/=-/KITAKita (2)X  06:40-06:40-  2154.8 42323mSERState Highway 2, Jharkhand
47.3/--/JONJonha (1)X  07:04-07:04-  2171.6 42470mSERJohna, Jharkhand
47.4/--/KWKCKherwa Kocha (1)  07:06-07:06-  2173.0 42454mSERlepsar, Jharkhand
47.5/--/GAGGangaghat (2)X  07:19-07:19-  2182.2 42543mSERState Highway 2, Jharkhand
47.6/-=/TISTatisilwai (3)  07:30-07:30-  2189.9 42612mSERTatisilwai, Jharkhand
47.7/==/NKMNamkom (3)  07:39-07:39-  2196.5 42618mSERRanchi, Jharkhand
48/==/RNCRanchi Junction (6)  07:45+4507:55+4710m22200.728632mSERDiv HQ SER, Jharkhand
48.1/==/AORArgora (1)  08:00-08:00-  2202.9 28654mSERRanchi, Jharkhand
49/==/HTEHatia (3)•  08:10+49-32207.7-657mSER2788599, Jharkhand
Scroll to Top
Scroll to Bottom